sensor_id;sensor_type;location;lat;lon;timestamp;pressure;altitude;pressure_sealevel;temperature;humidity
73918;BME280;63639;52.280;5.162;2023-02-15T00:00:15;103041.27;;;10.90;54.60
73918;BME280;63639;52.280;5.162;2023-02-15T00:02:43;103042.99;;;10.85;54.83
73918;BME280;63639;52.280;5.162;2023-02-15T00:05:10;103041.53;;;10.85;54.66
73918;BME280;63639;52.280;5.162;2023-02-15T00:07:37;103043.94;;;10.82;54.69
73918;BME280;63639;52.280;5.162;2023-02-15T00:10:07;103046.81;;;10.80;54.40
73918;BME280;63639;52.280;5.162;2023-02-15T00:12:34;103046.21;;;10.79;54.66
73918;BME280;63639;52.280;5.162;2023-02-15T00:15:02;103043.55;;;10.74;54.70
73918;BME280;63639;52.280;5.162;2023-02-15T00:17:29;103043.17;;;10.71;54.67
73918;BME280;63639;52.280;5.162;2023-02-15T00:19:56;103045.16;;;10.69;54.52
73918;BME280;63639;52.280;5.162;2023-02-15T00:22:23;103044.54;;;10.68;54.80
73918;BME280;63639;52.280;5.162;2023-02-15T00:24:50;103036.43;;;10.65;54.55
73918;BME280;63639;52.280;5.162;2023-02-15T00:27:17;103034.91;;;10.63;54.69
73918;BME280;63639;52.280;5.162;2023-02-15T00:29:44;103030.77;;;10.60;54.64
73918;BME280;63639;52.280;5.162;2023-02-15T00:32:11;103024.50;;;10.58;54.68
73918;BME280;63639;52.280;5.162;2023-02-15T00:34:38;103021.83;;;10.54;54.76
73918;BME280;63639;52.280;5.162;2023-02-15T00:37:04;103023.58;;;10.53;54.43
73918;BME280;63639;52.280;5.162;2023-02-15T00:39:31;103024.85;;;10.47;54.61
73918;BME280;63639;52.280;5.162;2023-02-15T00:41:58;103025.43;;;10.43;54.65
73918;BME280;63639;52.280;5.162;2023-02-15T00:44:29;103025.41;;;10.40;55.11
73918;BME280;63639;52.280;5.162;2023-02-15T01:38:55;102970.91;;;9.93;55.59
73918;BME280;63639;52.280;5.162;2023-02-15T01:41:20;102969.89;;;9.91;56.00
73918;BME280;63639;52.280;5.162;2023-02-15T01:43:47;102968.18;;;9.89;56.36
73918;BME280;63639;52.280;5.162;2023-02-15T01:46:18;102966.52;;;9.89;56.28
73918;BME280;63639;52.280;5.162;2023-02-15T01:48:49;102961.28;;;9.86;56.13
73918;BME280;63639;52.280;5.162;2023-02-15T01:51:19;102959.78;;;9.84;56.02
73918;BME280;63639;52.280;5.162;2023-02-15T01:53:50;102957.13;;;9.81;56.23
73918;BME280;63639;52.280;5.162;2023-02-15T01:56:20;102957.98;;;9.81;55.76
73918;BME280;63639;52.280;5.162;2023-02-15T01:58:49;102952.82;;;9.78;55.89
73918;BME280;63639;52.280;5.162;2023-02-15T02:03:47;102949.53;;;9.67;56.31
73918;BME280;63639;52.280;5.162;2023-02-15T02:06:16;102949.91;;;9.65;56.49
73918;BME280;63639;52.280;5.162;2023-02-15T02:08:43;102947.34;;;9.68;56.22
73918;BME280;63639;52.280;5.162;2023-02-15T02:11:11;102946.10;;;9.69;56.43
73918;BME280;63639;52.280;5.162;2023-02-15T02:13:39;102945.90;;;9.64;56.22
73918;BME280;63639;52.280;5.162;2023-02-15T02:16:13;102940.59;;;9.55;57.16
73918;BME280;63639;52.280;5.162;2023-02-15T02:18:50;102939.56;;;9.57;57.33
73918;BME280;63639;52.280;5.162;2023-02-15T02:21:36;102935.58;;;9.56;56.95
73918;BME280;63639;52.280;5.162;2023-02-15T02:24:21;102933.01;;;9.45;57.64
73918;BME280;63639;52.280;5.162;2023-02-15T02:27:18;102930.16;;;9.39;57.97
73918;BME280;63639;52.280;5.162;2023-02-15T02:30:06;102925.36;;;9.38;58.58
73918;BME280;63639;52.280;5.162;2023-02-15T02:33:18;102921.27;;;9.43;58.30
73918;BME280;63639;52.280;5.162;2023-02-15T02:35:56;102920.74;;;9.48;58.55
73918;BME280;63639;52.280;5.162;2023-02-15T02:38:28;102922.87;;;9.51;58.33
73918;BME280;63639;52.280;5.162;2023-02-15T02:41:04;102925.49;;;9.54;57.96
73918;BME280;63639;52.280;5.162;2023-02-15T02:43:37;102924.23;;;9.57;57.86
73918;BME280;63639;52.280;5.162;2023-02-15T02:46:11;102922.84;;;9.62;57.50
73918;BME280;63639;52.280;5.162;2023-02-15T02:48:41;102922.22;;;9.64;57.36
73918;BME280;63639;52.280;5.162;2023-02-15T02:51:07;102917.55;;;9.66;57.01
73918;BME280;63639;52.280;5.162;2023-02-15T02:53:34;102911.32;;;9.66;57.16
73918;BME280;63639;52.280;5.162;2023-02-15T02:56:08;102911.80;;;9.66;56.94
73918;BME280;63639;52.280;5.162;2023-02-15T02:58:39;102910.12;;;9.66;57.04
73918;BME280;63639;52.280;5.162;2023-02-15T03:01:12;102905.70;;;9.67;56.66
73918;BME280;63639;52.280;5.162;2023-02-15T03:03:42;102895.06;;;9.63;56.88
73918;BME280;63639;52.280;5.162;2023-02-15T03:06:12;102890.85;;;9.62;56.93
73918;BME280;63639;52.280;5.162;2023-02-15T03:08:43;102887.67;;;9.59;57.18
73918;BME280;63639;52.280;5.162;2023-02-15T03:11:12;102881.63;;;9.55;57.43
73918;BME280;63639;52.280;5.162;2023-02-15T03:13:38;102880.06;;;9.53;57.54
73918;BME280;63639;52.280;5.162;2023-02-15T03:16:07;102879.05;;;9.51;57.74
73918;BME280;63639;52.280;5.162;2023-02-15T03:18:39;102877.33;;;9.52;57.71
73918;BME280;63639;52.280;5.162;2023-02-15T03:21:09;102876.36;;;9.52;57.71
73918;BME280;63639;52.280;5.162;2023-02-15T03:23:38;102872.88;;;9.51;57.83
73918;BME280;63639;52.280;5.162;2023-02-15T03:26:06;102873.77;;;9.47;58.05
73918;BME280;63639;52.280;5.162;2023-02-15T03:28:36;102872.90;;;9.44;57.97
73918;BME280;63639;52.280;5.162;2023-02-15T03:31:06;102871.54;;;9.39;58.26
73918;BME280;63639;52.280;5.162;2023-02-15T03:33:36;102870.34;;;9.39;58.30
73918;BME280;63639;52.280;5.162;2023-02-15T03:36:09;102868.48;;;9.36;58.72
73918;BME280;63639;52.280;5.162;2023-02-15T03:38:44;102865.34;;;9.35;58.55
73918;BME280;63639;52.280;5.162;2023-02-15T03:41:16;102863.13;;;9.35;58.70
73918;BME280;63639;52.280;5.162;2023-02-15T03:43:49;102862.35;;;9.37;58.61
73918;BME280;63639;52.280;5.162;2023-02-15T03:46:21;102863.83;;;9.35;58.55
73918;BME280;63639;52.280;5.162;2023-02-15T03:48:53;102862.45;;;9.32;58.84
73918;BME280;63639;52.280;5.162;2023-02-15T03:51:21;102858.73;;;9.33;58.69
73918;BME280;63639;52.280;5.162;2023-02-15T03:53:50;102861.47;;;9.36;58.63
73918;BME280;63639;52.280;5.162;2023-02-15T03:56:19;102855.78;;;9.38;58.44
73918;BME280;63639;52.280;5.162;2023-02-15T03:58:45;102854.55;;;9.34;58.77
73918;BME280;63639;52.280;5.162;2023-02-15T04:01:19;102848.09;;;9.31;59.14
73918;BME280;63639;52.280;5.162;2023-02-15T04:03:54;102847.22;;;9.28;59.14
73918;BME280;63639;52.280;5.162;2023-02-15T04:06:23;102840.74;;;9.24;59.24
73918;BME280;63639;52.280;5.162;2023-02-15T04:08:50;102841.06;;;9.25;59.38
73918;BME280;63639;52.280;5.162;2023-02-15T04:11:17;102844.56;;;9.24;58.88
73918;BME280;63639;52.280;5.162;2023-02-15T04:13:43;102843.72;;;9.16;59.51
73918;BME280;63639;52.280;5.162;2023-02-15T04:16:10;102843.50;;;9.16;59.78
73918;BME280;63639;52.280;5.162;2023-02-15T04:18:38;102841.77;;;9.14;60.10
73918;BME280;63639;52.280;5.162;2023-02-15T04:21:05;102837.51;;;9.14;59.65
73918;BME280;63639;52.280;5.162;2023-02-15T04:23:32;102832.88;;;9.09;59.68
73918;BME280;63639;52.280;5.162;2023-02-15T04:26:03;102832.09;;;9.05;59.94
73918;BME280;63639;52.280;5.162;2023-02-15T04:28:30;102835.52;;;9.02;59.94
73918;BME280;63639;52.280;5.162;2023-02-15T04:30:58;102835.74;;;9.01;60.24
73918;BME280;63639;52.280;5.162;2023-02-15T04:33:25;102831.28;;;9.00;60.52
73918;BME280;63639;52.280;5.162;2023-02-15T04:35:51;102827.03;;;9.04;60.39
73918;BME280;63639;52.280;5.162;2023-02-15T04:38:18;102820.77;;;9.02;60.04
73918;BME280;63639;52.280;5.162;2023-02-15T04:40:44;102816.77;;;8.98;60.48
73918;BME280;63639;52.280;5.162;2023-02-15T04:43:15;102817.82;;;8.99;60.40
73918;BME280;63639;52.280;5.162;2023-02-15T04:45:47;102818.22;;;9.00;60.43
73918;BME280;63639;52.280;5.162;2023-02-15T04:48:14;102818.60;;;8.97;60.36
73918;BME280;63639;52.280;5.162;2023-02-15T04:50:42;102816.23;;;8.94;60.44
73918;BME280;63639;52.280;5.162;2023-02-15T04:53:08;102815.25;;;8.92;60.66
73918;BME280;63639;52.280;5.162;2023-02-15T04:55:35;102814.13;;;8.89;60.68
73918;BME280;63639;52.280;5.162;2023-02-15T04:58:02;102813.43;;;8.90;60.64
73918;BME280;63639;52.280;5.162;2023-02-15T05:00:29;102815.13;;;8.92;60.65
73918;BME280;63639;52.280;5.162;2023-02-15T05:02:55;102815.92;;;8.94;60.51
73918;BME280;63639;52.280;5.162;2023-02-15T05:05:22;102817.53;;;8.95;60.52
73918;BME280;63639;52.280;5.162;2023-02-15T05:07:49;102819.42;;;8.98;60.11
73918;BME280;63639;52.280;5.162;2023-02-15T05:10:16;102820.20;;;9.01;60.08
73918;BME280;63639;52.280;5.162;2023-02-15T05:12:42;102821.81;;;9.00;60.03
73918;BME280;63639;52.280;5.162;2023-02-15T05:15:09;102819.49;;;8.95;60.13
73918;BME280;63639;52.280;5.162;2023-02-15T05:17:36;102818.82;;;8.93;60.31
73918;BME280;63639;52.280;5.162;2023-02-15T05:20:03;102817.45;;;8.92;60.07
73918;BME280;63639;52.280;5.162;2023-02-15T05:22:31;102812.99;;;8.86;60.30
73918;BME280;63639;52.280;5.162;2023-02-15T05:24:58;102812.46;;;8.85;60.18
73918;BME280;63639;52.280;5.162;2023-02-15T05:27:24;102809.15;;;8.78;60.57
73918;BME280;63639;52.280;5.162;2023-02-15T05:29:52;102808.00;;;8.78;60.46
73918;BME280;63639;52.280;5.162;2023-02-15T05:32:19;102806.98;;;8.77;60.34
73918;BME280;63639;52.280;5.162;2023-02-15T05:34:46;102802.76;;;8.76;60.37
73918;BME280;63639;52.280;5.162;2023-02-15T05:37:13;102800.83;;;8.75;60.35
73918;BME280;63639;52.280;5.162;2023-02-15T05:39:40;102800.22;;;8.72;60.36
73918;BME280;63639;52.280;5.162;2023-02-15T05:42:06;102802.04;;;8.67;60.07
73918;BME280;63639;52.280;5.162;2023-02-15T05:44:33;102803.05;;;8.61;60.07
73918;BME280;63639;52.280;5.162;2023-02-15T05:47:00;102802.97;;;8.57;60.68
73918;BME280;63639;52.280;5.162;2023-02-15T05:49:27;102800.25;;;8.54;60.91
73918;BME280;63639;52.280;5.162;2023-02-15T05:51:54;102799.14;;;8.53;60.49
73918;BME280;63639;52.280;5.162;2023-02-15T05:54:21;102796.56;;;8.51;60.75
73918;BME280;63639;52.280;5.162;2023-02-15T05:56:48;102798.87;;;8.52;60.69
73918;BME280;63639;52.280;5.162;2023-02-15T05:59:15;102797.64;;;8.44;60.34
73918;BME280;63639;52.280;5.162;2023-02-15T06:01:42;102794.81;;;8.40;60.76
73918;BME280;63639;52.280;5.162;2023-02-15T06:04:09;102792.20;;;8.36;60.91
73918;BME280;63639;52.280;5.162;2023-02-15T06:06:36;102791.21;;;8.35;61.04
73918;BME280;63639;52.280;5.162;2023-02-15T06:09:03;102787.37;;;8.37;60.41
73918;BME280;63639;52.280;5.162;2023-02-15T06:11:30;102782.99;;;8.33;60.52
73918;BME280;63639;52.280;5.162;2023-02-15T06:13:56;102779.17;;;8.25;61.21
73918;BME280;63639;52.280;5.162;2023-02-15T06:16:23;102779.66;;;8.20;61.09
73918;BME280;63639;52.280;5.162;2023-02-15T06:18:50;102780.81;;;8.17;61.22
73918;BME280;63639;52.280;5.162;2023-02-15T06:21:17;102781.83;;;8.14;61.18
73918;BME280;63639;52.280;5.162;2023-02-15T06:23:43;102782.69;;;8.13;61.18
73918;BME280;63639;52.280;5.162;2023-02-15T06:26:10;102786.25;;;8.13;61.43
73918;BME280;63639;52.280;5.162;2023-02-15T06:28:37;102786.29;;;8.13;61.08
73918;BME280;63639;52.280;5.162;2023-02-15T06:31:05;102784.91;;;8.13;60.99
73918;BME280;63639;52.280;5.162;2023-02-15T06:33:32;102782.47;;;8.13;61.20
73918;BME280;63639;52.280;5.162;2023-02-15T06:36:00;102782.99;;;8.12;61.12
73918;BME280;63639;52.280;5.162;2023-02-15T06:38:27;102781.84;;;8.15;61.44
73918;BME280;63639;52.280;5.162;2023-02-15T06:40:53;102784.02;;;8.20;61.17
73918;BME280;63639;52.280;5.162;2023-02-15T06:43:20;102787.62;;;8.23;60.37
73918;BME280;63639;52.280;5.162;2023-02-15T06:45:47;102789.27;;;8.15;60.60
73918;BME280;63639;52.280;5.162;2023-02-15T06:48:14;102789.27;;;8.10;61.18
73918;BME280;63639;52.280;5.162;2023-02-15T06:50:41;102789.64;;;8.10;61.31
73918;BME280;63639;52.280;5.162;2023-02-15T06:53:08;102786.43;;;8.13;60.76
73918;BME280;63639;52.280;5.162;2023-02-15T06:55:35;102784.36;;;8.11;61.37
73918;BME280;63639;52.280;5.162;2023-02-15T06:58:02;102784.10;;;8.10;60.83
73918;BME280;63639;52.280;5.162;2023-02-15T07:00:29;102779.76;;;8.10;60.81
73918;BME280;63639;52.280;5.162;2023-02-15T07:02:57;102779.69;;;8.08;60.89
73918;BME280;63639;52.280;5.162;2023-02-15T07:05:24;102779.97;;;7.99;61.28
73918;BME280;63639;52.280;5.162;2023-02-15T07:07:51;102779.35;;;8.04;60.79
73918;BME280;63639;52.280;5.162;2023-02-15T07:10:18;102779.97;;;8.02;61.03
73918;BME280;63639;52.280;5.162;2023-02-15T07:12:45;102779.27;;;7.85;61.38
73918;BME280;63639;52.280;5.162;2023-02-15T07:15:14;102783.10;;;7.78;61.80
73918;BME280;63639;52.280;5.162;2023-02-15T07:17:43;102781.66;;;7.76;61.96
73918;BME280;63639;52.280;5.162;2023-02-15T07:20:12;102778.18;;;7.70;61.89
73918;BME280;63639;52.280;5.162;2023-02-15T07:22:39;102776.02;;;7.75;61.92
73918;BME280;63639;52.280;5.162;2023-02-15T07:25:08;102772.45;;;7.81;62.11
73918;BME280;63639;52.280;5.162;2023-02-15T07:27:36;102769.30;;;7.89;61.95
73918;BME280;63639;52.280;5.162;2023-02-15T07:30:05;102764.12;;;7.92;62.35
73918;BME280;63639;52.280;5.162;2023-02-15T07:32:32;102756.62;;;7.94;61.99
73918;BME280;63639;52.280;5.162;2023-02-15T07:34:59;102751.34;;;7.95;62.01
73918;BME280;63639;52.280;5.162;2023-02-15T07:37:27;102752.70;;;7.98;62.23
73918;BME280;63639;52.280;5.162;2023-02-15T07:39:53;102755.07;;;8.04;62.14
73918;BME280;63639;52.280;5.162;2023-02-15T07:42:20;102752.72;;;8.06;61.74
73918;BME280;63639;52.280;5.162;2023-02-15T07:44:47;102756.05;;;8.02;61.57
73918;BME280;63639;52.280;5.162;2023-02-15T07:47:14;102755.76;;;7.90;62.02
73918;BME280;63639;52.280;5.162;2023-02-15T07:49:41;102751.33;;;7.83;62.57
73918;BME280;63639;52.280;5.162;2023-02-15T07:52:08;102753.99;;;7.75;62.83
73918;BME280;63639;52.280;5.162;2023-02-15T07:54:36;102751.11;;;7.67;63.10
73918;BME280;63639;52.280;5.162;2023-02-15T07:57:03;102749.53;;;7.68;63.50
73918;BME280;63639;52.280;5.162;2023-02-15T07:59:30;102746.63;;;7.75;63.07
73918;BME280;63639;52.280;5.162;2023-02-15T08:01:57;102739.69;;;7.82;62.82
73918;BME280;63639;52.280;5.162;2023-02-15T08:04:24;102737.34;;;7.87;62.40
73918;BME280;63639;52.280;5.162;2023-02-15T08:06:53;102738.19;;;7.88;62.69
73918;BME280;63639;52.280;5.162;2023-02-15T08:09:20;102738.44;;;7.76;62.78
73918;BME280;63639;52.280;5.162;2023-02-15T08:11:48;102735.71;;;7.85;63.09
73918;BME280;63639;52.280;5.162;2023-02-15T08:14:16;102729.22;;;7.95;62.96
73918;BME280;63639;52.280;5.162;2023-02-15T08:16:44;102727.50;;;7.98;62.50
73918;BME280;63639;52.280;5.162;2023-02-15T08:19:12;102726.58;;;8.00;62.81
73918;BME280;63639;52.280;5.162;2023-02-15T08:21:41;102722.04;;;8.08;62.61
73918;BME280;63639;52.280;5.162;2023-02-15T08:24:10;102718.55;;;8.12;62.51
73918;BME280;63639;52.280;5.162;2023-02-15T08:26:38;102714.58;;;8.18;62.58
73918;BME280;63639;52.280;5.162;2023-02-15T08:29:07;102715.45;;;8.25;62.47
73918;BME280;63639;52.280;5.162;2023-02-15T08:31:34;102716.15;;;8.35;62.33
73918;BME280;63639;52.280;5.162;2023-02-15T08:34:01;102711.53;;;8.32;62.28
73918;BME280;63639;52.280;5.162;2023-02-15T08:36:30;102713.80;;;8.25;62.77
73918;BME280;63639;52.280;5.162;2023-02-15T08:38:57;102712.66;;;8.15;63.18
73918;BME280;63639;52.280;5.162;2023-02-15T08:41:26;102714.15;;;8.18;63.58
73918;BME280;63639;52.280;5.162;2023-02-15T08:43:54;102716.37;;;8.21;63.79
73918;BME280;63639;52.280;5.162;2023-02-15T08:46:23;102714.11;;;8.30;63.63
73918;BME280;63639;52.280;5.162;2023-02-15T08:48:50;102716.44;;;8.39;63.41
73918;BME280;63639;52.280;5.162;2023-02-15T08:51:19;102713.27;;;8.47;63.71
73918;BME280;63639;52.280;5.162;2023-02-15T08:53:48;102711.85;;;8.56;63.07
73918;BME280;63639;52.280;5.162;2023-02-15T08:56:16;102713.82;;;8.58;63.29
73918;BME280;63639;52.280;5.162;2023-02-15T08:58:44;102710.09;;;8.71;63.44
73918;BME280;63639;52.280;5.162;2023-02-15T09:01:12;102708.91;;;8.71;63.20
73918;BME280;63639;52.280;5.162;2023-02-15T09:03:39;102710.04;;;8.73;63.53
73918;BME280;63639;52.280;5.162;2023-02-15T09:06:07;102713.59;;;8.74;63.42
73918;BME280;63639;52.280;5.162;2023-02-15T09:08:34;102711.81;;;8.85;63.38
73918;BME280;63639;52.280;5.162;2023-02-15T09:11:06;102707.19;;;8.90;63.58
73918;BME280;63639;52.280;5.162;2023-02-15T09:13:33;102706.76;;;8.98;63.14
73918;BME280;63639;52.280;5.162;2023-02-15T09:16:01;102696.08;;;9.22;63.02
73918;BME280;63639;52.280;5.162;2023-02-15T09:18:30;102691.20;;;9.48;62.08
73918;BME280;63639;52.280;5.162;2023-02-15T09:20:57;102687.71;;;9.64;61.61
73918;BME280;63639;52.280;5.162;2023-02-15T09:23:29;102686.36;;;9.74;61.63
73918;BME280;63639;52.280;5.162;2023-02-15T09:25:56;102685.77;;;9.82;61.58
73918;BME280;63639;52.280;5.162;2023-02-15T09:28:23;102687.70;;;10.01;60.60
73918;BME280;63639;52.280;5.162;2023-02-15T09:30:49;102688.70;;;10.17;60.16
73918;BME280;63639;52.280;5.162;2023-02-15T09:33:16;102691.74;;;10.44;60.08
73918;BME280;63639;52.280;5.162;2023-02-15T09:35:42;102688.10;;;10.59;58.62
73918;BME280;63639;52.280;5.162;2023-02-15T09:38:10;102690.55;;;10.71;58.39
73918;BME280;63639;52.280;5.162;2023-02-15T09:40:44;102689.15;;;10.85;58.16
73918;BME280;63639;52.280;5.162;2023-02-15T09:43:25;102691.76;;;11.08;57.61
73918;BME280;63639;52.280;5.162;2023-02-15T09:46:09;102690.43;;;11.48;57.30
73918;BME280;63639;52.280;5.162;2023-02-15T09:48:39;102687.82;;;11.63;56.26
73918;BME280;63639;52.280;5.162;2023-02-15T09:51:20;102686.93;;;11.85;56.14
73918;BME280;63639;52.280;5.162;2023-02-15T09:54:03;102685.96;;;11.98;53.78
73918;BME280;63639;52.280;5.162;2023-02-15T09:56:40;102682.22;;;12.19;53.37
73918;BME280;63639;52.280;5.162;2023-02-15T09:59:16;102686.33;;;12.39;52.08
73918;BME280;63639;52.280;5.162;2023-02-15T10:01:53;102693.03;;;12.38;52.08
73918;BME280;63639;52.280;5.162;2023-02-15T10:04:40;102696.72;;;12.37;53.07
73918;BME280;63639;52.280;5.162;2023-02-15T10:07:21;102695.30;;;12.51;52.43
73918;BME280;63639;52.280;5.162;2023-02-15T10:10:02;102701.12;;;11.98;53.04
73918;BME280;63639;52.280;5.162;2023-02-15T10:12:39;102700.11;;;11.71;53.55
73918;BME280;63639;52.280;5.162;2023-02-15T10:15:20;102709.84;;;11.76;53.67
73918;BME280;63639;52.280;5.162;2023-02-15T10:18:04;102712.93;;;11.73;53.60
73918;BME280;63639;52.280;5.162;2023-02-15T10:20:39;102716.02;;;11.64;54.30
73918;BME280;63639;52.280;5.162;2023-02-15T10:23:25;102712.51;;;11.58;53.98
73918;BME280;63639;52.280;5.162;2023-02-15T10:26:03;102708.84;;;11.90;53.92
73918;BME280;63639;52.280;5.162;2023-02-15T10:28:42;102709.74;;;12.29;52.88
73918;BME280;63639;52.280;5.162;2023-02-15T10:31:19;102706.85;;;12.69;52.58
73918;BME280;63639;52.280;5.162;2023-02-15T10:33:58;102708.69;;;12.57;51.46
73918;BME280;63639;52.280;5.162;2023-02-15T10:36:40;102711.25;;;12.43;52.07
73918;BME280;63639;52.280;5.162;2023-02-15T10:39:20;102710.95;;;12.37;51.37
73918;BME280;63639;52.280;5.162;2023-02-15T10:41:54;102712.23;;;12.08;52.35
73918;BME280;63639;52.280;5.162;2023-02-15T10:44:34;102703.94;;;11.91;52.92
73918;BME280;63639;52.280;5.162;2023-02-15T10:47:17;102704.74;;;12.24;52.62
73918;BME280;63639;52.280;5.162;2023-02-15T10:49:56;102702.16;;;12.29;52.84
73918;BME280;63639;52.280;5.162;2023-02-15T10:52:40;102702.41;;;12.44;52.25
73918;BME280;63639;52.280;5.162;2023-02-15T10:55:17;102697.94;;;12.76;51.30
73918;BME280;63639;52.280;5.162;2023-02-15T10:57:55;102687.65;;;12.89;51.51
73918;BME280;63639;52.280;5.162;2023-02-15T11:00:29;102677.74;;;12.94;51.33
73918;BME280;63639;52.280;5.162;2023-02-15T11:03:19;102673.35;;;13.23;50.70
73918;BME280;63639;52.280;5.162;2023-02-15T11:06:00;102671.28;;;13.28;49.92
73918;BME280;63639;52.280;5.162;2023-02-15T11:08:30;102668.60;;;13.33;49.65
73918;BME280;63639;52.280;5.162;2023-02-15T11:11:01;102662.68;;;13.46;49.87
73918;BME280;63639;52.280;5.162;2023-02-15T11:13:34;102655.59;;;13.74;49.27
73918;BME280;63639;52.280;5.162;2023-02-15T11:16:04;102650.62;;;13.91;48.70
73918;BME280;63639;52.280;5.162;2023-02-15T11:18:35;102649.09;;;13.94;47.89
73918;BME280;63639;52.280;5.162;2023-02-15T11:21:07;102650.34;;;13.77;48.21
73918;BME280;63639;52.280;5.162;2023-02-15T11:23:40;102651.30;;;13.58;49.26
73918;BME280;63639;52.280;5.162;2023-02-15T11:26:13;102642.70;;;13.69;49.28
73918;BME280;63639;52.280;5.162;2023-02-15T11:28:46;102630.37;;;13.84;49.04
73918;BME280;63639;52.280;5.162;2023-02-15T11:31:17;102629.19;;;13.98;48.96
73918;BME280;63639;52.280;5.162;2023-02-15T11:33:47;102627.56;;;14.16;48.29
73918;BME280;63639;52.280;5.162;2023-02-15T11:36:20;102622.46;;;14.11;48.36
73918;BME280;63639;52.280;5.162;2023-02-15T11:38:54;102616.85;;;13.90;48.68
73918;BME280;63639;52.280;5.162;2023-02-15T11:41:28;102612.57;;;13.78;49.16
73918;BME280;63639;52.280;5.162;2023-02-15T11:43:58;102608.08;;;13.76;49.38
73918;BME280;63639;52.280;5.162;2023-02-15T11:46:27;102603.63;;;13.91;49.28
73918;BME280;63639;52.280;5.162;2023-02-15T11:48:54;102595.18;;;13.98;49.17
73918;BME280;63639;52.280;5.162;2023-02-15T11:51:21;102586.56;;;14.05;49.00
73918;BME280;63639;52.280;5.162;2023-02-15T11:53:50;102589.33;;;14.08;48.93
73918;BME280;63639;52.280;5.162;2023-02-15T11:56:21;102585.27;;;13.84;49.31
73918;BME280;63639;52.280;5.162;2023-02-15T11:58:52;102587.60;;;13.58;49.95
73918;BME280;63639;52.280;5.162;2023-02-15T12:01:27;102593.47;;;13.37;50.99
73918;BME280;63639;52.280;5.162;2023-02-15T12:03:59;102586.43;;;13.30;51.01
73918;BME280;63639;52.280;5.162;2023-02-15T12:06:33;102582.77;;;13.16;51.50
73918;BME280;63639;52.280;5.162;2023-02-15T12:09:05;102583.41;;;13.62;51.14
73918;BME280;63639;52.280;5.162;2023-02-15T12:11:36;102575.14;;;13.76;50.53
73918;BME280;63639;52.280;5.162;2023-02-15T12:14:05;102574.85;;;13.98;50.02
73918;BME280;63639;52.280;5.162;2023-02-15T12:16:40;102571.61;;;13.85;49.58
73918;BME280;63639;52.280;5.162;2023-02-15T12:19:24;102569.48;;;14.11;49.71
73918;BME280;63639;52.280;5.162;2023-02-15T12:21:56;102567.57;;;14.43;48.99
73918;BME280;63639;52.280;5.162;2023-02-15T12:24:26;102572.25;;;14.62;48.81
73918;BME280;63639;52.280;5.162;2023-02-15T12:27:01;102573.08;;;14.41;48.44
73918;BME280;63639;52.280;5.162;2023-02-15T12:29:31;102562.40;;;14.14;49.15
73918;BME280;63639;52.280;5.162;2023-02-15T12:32:03;102558.28;;;14.20;49.17
73918;BME280;63639;52.280;5.162;2023-02-15T12:34:33;102551.43;;;14.29;49.49
73918;BME280;63639;52.280;5.162;2023-02-15T12:37:11;102548.57;;;14.74;48.91
73918;BME280;63639;52.280;5.162;2023-02-15T12:39:51;102548.27;;;14.73;48.11
73918;BME280;63639;52.280;5.162;2023-02-15T12:42:18;102545.52;;;14.82;48.64
73918;BME280;63639;52.280;5.162;2023-02-15T12:44:55;102545.67;;;14.78;48.31
73918;BME280;63639;52.280;5.162;2023-02-15T12:47:23;102547.14;;;14.81;48.41
73918;BME280;63639;52.280;5.162;2023-02-15T12:50:06;102549.73;;;14.91;48.48
73918;BME280;63639;52.280;5.162;2023-02-15T12:52:33;102544.12;;;15.20;47.81
73918;BME280;63639;52.280;5.162;2023-02-15T12:55:17;102541.81;;;15.38;47.76
73918;BME280;63639;52.280;5.162;2023-02-15T12:57:45;102545.81;;;15.41;47.24
73918;BME280;63639;52.280;5.162;2023-02-15T13:00:27;102544.78;;;15.54;47.04
73918;BME280;63639;52.280;5.162;2023-02-15T13:02:55;102543.27;;;15.54;46.80
73918;BME280;63639;52.280;5.162;2023-02-15T13:05:28;102536.78;;;15.47;47.30
73918;BME280;63639;52.280;5.162;2023-02-15T13:07:58;102539.48;;;15.57;47.04
73918;BME280;63639;52.280;5.162;2023-02-15T13:10:29;102534.21;;;15.57;47.30
73918;BME280;63639;52.280;5.162;2023-02-15T13:12:57;102533.14;;;15.72;46.84
73918;BME280;63639;52.280;5.162;2023-02-15T13:15:28;102531.23;;;15.80;46.67
73918;BME280;63639;52.280;5.162;2023-02-15T13:17:57;102530.30;;;15.43;46.08
73918;BME280;63639;52.280;5.162;2023-02-15T13:20:26;102534.70;;;15.13;46.86
73918;BME280;63639;52.280;5.162;2023-02-15T13:22:58;102532.20;;;14.63;47.94
73918;BME280;63639;52.280;5.162;2023-02-15T13:25:28;102529.61;;;14.77;48.26
73918;BME280;63639;52.280;5.162;2023-02-15T13:28:00;102526.13;;;14.71;48.38
73918;BME280;63639;52.280;5.162;2023-02-15T13:30:30;102527.96;;;14.38;48.74
73918;BME280;63639;52.280;5.162;2023-02-15T13:33:02;102528.37;;;14.04;49.62
73918;BME280;63639;52.280;5.162;2023-02-15T13:35:38;102525.15;;;13.83;50.50
73918;BME280;63639;52.280;5.162;2023-02-15T13:38:16;102524.05;;;13.77;51.16
73918;BME280;63639;52.280;5.162;2023-02-15T13:40:53;102522.92;;;13.84;51.14
73918;BME280;63639;52.280;5.162;2023-02-15T13:43:32;102522.18;;;14.08;50.94
73918;BME280;63639;52.280;5.162;2023-02-15T13:46:18;102520.47;;;14.01;51.46
73918;BME280;63639;52.280;5.162;2023-02-15T13:48:59;102520.65;;;13.98;51.59
73918;BME280;63639;52.280;5.162;2023-02-15T13:51:37;102520.81;;;14.09;51.20
73918;BME280;63639;52.280;5.162;2023-02-15T13:54:23;102521.75;;;13.77;52.30
73918;BME280;63639;52.280;5.162;2023-02-15T13:57:01;102515.44;;;13.59;53.08
73918;BME280;63639;52.280;5.162;2023-02-15T13:59:43;102512.76;;;13.64;52.78
73918;BME280;63639;52.280;5.162;2023-02-15T14:02:35;102501.84;;;14.01;51.96
73918;BME280;63639;52.280;5.162;2023-02-15T14:05:20;102504.36;;;13.68;52.86
73918;BME280;63639;52.280;5.162;2023-02-15T14:07:59;102499.26;;;14.02;52.50